createdAt,value
2018-06-16T00:02:01.693Z,91.90
2018-06-16T00:04:03.760Z,91.60
2018-06-16T00:06:05.819Z,91.60
2018-06-16T00:08:07.891Z,91.60
2018-06-16T00:10:10.069Z,91.70
2018-06-16T00:12:12.169Z,91.90
2018-06-16T00:14:14.253Z,91.90
2018-06-16T00:16:16.313Z,91.90
2018-06-16T00:18:18.393Z,91.90
2018-06-16T00:20:20.450Z,91.90
2018-06-16T00:22:22.521Z,91.70
2018-06-16T00:24:24.573Z,91.50
2018-06-16T00:26:26.658Z,91.80
2018-06-16T00:28:28.730Z,91.50
2018-06-16T00:30:30.794Z,91.60
2018-06-16T00:32:32.865Z,91.70
2018-06-16T00:34:34.957Z,92.10
2018-06-16T00:36:37.066Z,92.30
2018-06-16T00:38:39.125Z,92.50
2018-06-16T00:40:41.216Z,92.70
2018-06-16T00:42:43.287Z,92.70
2018-06-16T00:44:45.410Z,92.80
2018-06-16T00:46:47.453Z,92.90
2018-06-16T00:48:49.559Z,92.80
2018-06-16T00:50:51.675Z,93.00
2018-06-16T00:52:53.777Z,93.90
2018-06-16T00:54:55.849Z,94.40
2018-06-16T00:57:09.697Z,94.10
2018-06-16T00:59:11.760Z,94.50
2018-06-16T01:01:13.840Z,94.20
2018-06-16T01:03:15.906Z,94.50
2018-06-16T01:05:17.968Z,93.80
2018-06-16T01:07:20.063Z,94.00
2018-06-16T01:09:22.116Z,94.60
2018-06-16T01:11:24.155Z,93.90
2018-06-16T01:13:26.223Z,94.10
2018-06-16T01:15:28.314Z,94.10
2018-06-16T01:17:30.365Z,94.10
2018-06-16T01:19:32.425Z,93.90
2018-06-16T01:21:34.489Z,94.10
2018-06-16T01:23:36.525Z,94.00
2018-06-16T01:25:38.576Z,94.10
2018-06-16T01:27:40.650Z,94.60
2018-06-16T01:29:42.785Z,94.40
2018-06-16T01:31:44.844Z,94.00
2018-06-16T01:33:46.907Z,94.30
2018-06-16T01:35:48.951Z,94.40
2018-06-16T01:37:50.997Z,94.60
2018-06-16T01:39:53.073Z,94.70
2018-06-16T01:41:55.163Z,94.40
2018-06-16T01:43:57.221Z,95.20
2018-06-16T01:45:59.293Z,95.20
2018-06-16T01:48:01.353Z,95.20
2018-06-16T01:50:03.413Z,95.20
2018-06-16T01:52:05.654Z,95.20
2018-06-16T01:54:07.693Z,95.00
2018-06-16T01:56:09.763Z,95.30
2018-06-16T01:58:11.861Z,95.20
2018-06-16T02:00:13.918Z,95.30
2018-06-16T02:02:15.989Z,95.40
2018-06-16T02:04:18.070Z,95.50
2018-06-16T02:06:20.126Z,95.10
2018-06-16T02:08:22.229Z,95.40
2018-06-16T02:10:24.297Z,95.20
2018-06-16T02:12:26.371Z,95.20
2018-06-16T02:14:28.440Z,95.90
2018-06-16T02:16:30.567Z,96.00
2018-06-16T02:18:32.620Z,95.60
2018-06-16T02:20:34.725Z,96.20
2018-06-16T02:22:36.764Z,95.50
2018-06-16T02:24:38.817Z,95.30
2018-06-16T02:26:40.900Z,95.50
2018-06-16T02:28:42.989Z,95.80
2018-06-16T02:30:45.435Z,95.90
2018-06-16T02:32:48.303Z,96.00
2018-06-16T02:34:51.090Z,96.30
2018-06-16T02:36:53.873Z,96.30
2018-06-16T02:38:56.007Z,96.50
2018-06-16T02:40:58.101Z,96.30
2018-06-16T02:43:00.174Z,96.10
2018-06-16T02:45:02.237Z,96.30
2018-06-16T02:47:04.424Z,96.00
2018-06-16T02:49:06.501Z,96.20
2018-06-16T02:51:08.560Z,95.90
2018-06-16T02:53:10.613Z,96.30
2018-06-16T02:55:12.711Z,95.90
2018-06-16T02:57:14.742Z,96.60
2018-06-16T02:59:16.939Z,96.10
2018-06-16T03:01:19.022Z,96.30
2018-06-16T03:03:21.136Z,95.70
2018-06-16T03:05:23.201Z,95.60
2018-06-16T03:07:25.294Z,95.70
2018-06-16T03:09:27.355Z,96.20
2018-06-16T03:11:29.409Z,95.50
2018-06-16T03:13:31.475Z,95.70
2018-06-16T03:15:33.554Z,96.70
2018-06-16T03:17:35.686Z,96.30
2018-06-16T03:19:37.805Z,96.70
2018-06-16T03:21:39.868Z,96.30
2018-06-16T03:23:41.929Z,96.60
2018-06-16T03:25:44.001Z,96.60
2018-06-16T03:27:46.073Z,96.70
2018-06-16T03:29:48.120Z,96.40
2018-06-16T03:31:50.176Z,96.50
2018-06-16T03:33:52.264Z,96.30
2018-06-16T03:35:54.348Z,96.30
2018-06-16T03:37:56.446Z,96.20
2018-06-16T03:39:58.482Z,96.50
2018-06-16T03:42:00.541Z,96.60
2018-06-16T03:44:02.602Z,96.00
2018-06-16T03:46:04.716Z,95.80
2018-06-16T03:48:06.767Z,96.10
2018-06-16T03:50:08.820Z,96.10
2018-06-16T03:52:10.944Z,96.20
2018-06-16T03:56:15.112Z,96.20
2018-06-16T03:58:17.210Z,96.20
2018-06-16T04:00:19.287Z,96.10
2018-06-16T04:02:21.353Z,97.30
2018-06-16T04:04:23.431Z,96.30
2018-06-16T04:06:25.531Z,96.20
2018-06-16T04:08:27.591Z,96.30
2018-06-16T04:10:29.640Z,97.20
2018-06-16T04:12:31.712Z,96.10
2018-06-16T04:14:33.769Z,96.70
2018-06-16T04:16:36.206Z,96.40
2018-06-16T04:18:38.267Z,96.30
2018-06-16T04:20:40.333Z,96.00
2018-06-16T04:22:42.518Z,95.70
2018-06-16T04:24:44.569Z,95.30
2018-06-16T04:26:46.658Z,95.10
2018-06-16T04:28:48.752Z,95.70
2018-06-16T04:30:50.804Z,96.40
2018-06-16T04:32:53.653Z,96.30
2018-06-16T04:34:55.734Z,95.70
2018-06-16T04:36:57.790Z,96.20
2018-06-16T04:39:00.066Z,95.90
2018-06-16T04:41:02.121Z,96.40
2018-06-16T04:43:04.256Z,96.20
2018-06-16T04:45:06.423Z,96.40
2018-06-16T04:47:08.570Z,96.00
2018-06-16T04:49:10.768Z,96.90
2018-06-16T04:51:12.948Z,96.50
2018-06-16T04:53:15.038Z,95.80
2018-06-16T04:55:17.089Z,95.60
2018-06-16T04:57:19.154Z,95.70
2018-06-16T04:59:21.216Z,95.90
2018-06-16T05:01:23.295Z,95.60
2018-06-16T05:03:25.374Z,95.20
2018-06-16T05:05:27.591Z,95.80
2018-06-16T05:07:29.650Z,95.70
2018-06-16T05:09:32.045Z,96.60
2018-06-16T05:11:34.124Z,95.80
2018-06-16T05:13:36.199Z,95.90
2018-06-16T05:15:38.275Z,95.30
2018-06-16T05:17:40.649Z,95.30
2018-06-16T05:19:42.774Z,95.70
2018-06-16T05:21:44.844Z,95.70
2018-06-16T05:23:46.893Z,95.90
2018-06-16T05:25:48.972Z,96.40
2018-06-16T05:27:51.084Z,96.20
2018-06-16T05:29:53.183Z,96.80
2018-06-16T05:31:55.254Z,95.90
2018-06-16T05:33:57.317Z,95.70
2018-06-16T05:35:59.385Z,94.80
2018-06-16T05:38:01.453Z,95.60
2018-06-16T05:40:03.604Z,95.20
2018-06-16T05:42:05.666Z,94.80
2018-06-16T05:44:07.741Z,94.10
2018-06-16T05:46:09.807Z,94.80
2018-06-16T05:48:11.886Z,94.90
2018-06-16T05:50:14.001Z,94.30
2018-06-16T05:52:16.069Z,95.00
2018-06-16T05:54:18.144Z,94.70
2018-06-16T05:56:20.183Z,94.30
2018-06-16T05:58:22.267Z,93.00
2018-06-16T06:00:24.382Z,93.30
2018-06-16T06:02:26.399Z,93.40
2018-06-16T06:04:28.518Z,93.00
2018-06-16T06:06:30.680Z,91.90
2018-06-16T06:08:32.782Z,92.50
2018-06-16T06:10:34.898Z,93.10
2018-06-16T06:12:36.954Z,91.90
2018-06-16T06:14:39.026Z,91.90
2018-06-16T06:16:41.121Z,92.50
2018-06-16T06:18:43.182Z,92.40
2018-06-16T06:20:45.266Z,91.50
2018-06-16T06:22:47.452Z,91.00
2018-06-16T06:24:49.501Z,91.10
2018-06-16T06:26:51.586Z,90.60
2018-06-16T06:28:53.813Z,91.00
2018-06-16T06:30:55.895Z,90.80
2018-06-16T06:32:57.977Z,90.80
2018-06-16T06:35:00.067Z,88.70
2018-06-16T06:37:02.186Z,90.70
2018-06-16T06:39:05.821Z,88.50
2018-06-16T06:41:07.982Z,88.80
2018-06-16T06:43:10.045Z,85.10
2018-06-16T06:45:12.216Z,87.60
2018-06-16T06:47:14.276Z,90.10
2018-06-16T06:49:16.358Z,87.50
2018-06-16T06:51:18.403Z,86.20
2018-06-16T06:53:20.506Z,85.00
2018-06-16T06:55:22.601Z,85.20
2018-06-16T06:57:24.668Z,84.30
2018-06-16T06:59:26.733Z,82.90
2018-06-16T07:01:28.809Z,78.90
2018-06-16T07:03:30.876Z,83.00
2018-06-16T07:05:33.098Z,82.50
2018-06-16T07:07:35.148Z,76.90
2018-06-16T07:09:37.207Z,81.90
2018-06-16T07:11:39.290Z,76.80
2018-06-16T07:13:41.388Z,78.50
2018-06-16T07:15:43.452Z,79.10
2018-06-16T07:17:45.512Z,77.70
2018-06-16T07:19:47.629Z,79.00
2018-06-16T07:21:49.716Z,64.40
2018-06-16T07:23:51.799Z,63.90
2018-06-16T07:27:56.198Z,63.70
2018-06-16T07:29:58.298Z,63.00
2018-06-16T07:32:00.408Z,65.20
2018-06-16T07:34:02.572Z,60.00
2018-06-16T07:36:04.705Z,64.70
2018-06-16T07:38:06.866Z,68.50
2018-06-16T07:40:08.962Z,57.00
2018-06-16T07:42:11.079Z,65.40
2018-06-16T07:44:13.183Z,60.00
2018-06-16T07:46:15.313Z,61.90
2018-06-16T07:48:17.426Z,59.90
2018-06-16T07:50:19.598Z,58.70
2018-06-16T07:52:21.712Z,57.40
2018-06-16T07:54:23.864Z,60.40
2018-06-16T07:56:25.988Z,58.50
2018-06-16T07:58:28.089Z,61.30
2018-06-16T08:00:30.214Z,58.10
2018-06-16T08:02:32.262Z,61.50
2018-06-16T08:04:34.383Z,61.60
2018-06-16T08:06:36.507Z,65.80
2018-06-16T08:08:38.609Z,63.70
2018-06-16T08:10:40.717Z,61.80
2018-06-16T08:12:42.830Z,63.00
2018-06-16T08:14:44.872Z,60.30
2018-06-16T08:16:46.954Z,59.20
2018-06-16T08:18:49.066Z,59.40
2018-06-16T08:20:51.144Z,59.60
2018-06-16T08:22:53.233Z,61.70
2018-06-16T08:24:55.300Z,59.60
2018-06-16T08:26:57.352Z,57.30
2018-06-16T08:28:59.501Z,56.40
2018-06-16T08:31:01.597Z,55.20
2018-06-16T08:33:03.641Z,59.20
2018-06-16T08:35:05.757Z,56.00
2018-06-16T08:37:07.851Z,55.40
2018-06-16T08:39:11.341Z,56.30
2018-06-16T08:41:13.481Z,58.40
2018-06-16T08:43:15.636Z,54.50
2018-06-16T08:45:18.046Z,52.00
2018-06-16T08:47:20.151Z,58.90
2018-06-16T08:49:22.238Z,54.90
2018-06-16T08:51:24.305Z,52.60
2018-06-16T08:53:26.349Z,53.70
2018-06-16T08:55:28.493Z,53.20
2018-06-16T08:57:30.476Z,55.90
2018-06-16T08:59:32.969Z,51.10
2018-06-16T09:01:35.037Z,54.60
2018-06-16T09:03:37.138Z,51.70
2018-06-16T09:05:39.263Z,52.10
2018-06-16T09:07:41.360Z,51.00
2018-06-16T09:09:43.452Z,50.50
2018-06-16T09:11:45.569Z,48.30
2018-06-16T09:13:47.995Z,49.00
2018-06-16T09:15:50.099Z,48.00
2018-06-16T09:17:52.331Z,49.10
2018-06-16T09:19:54.402Z,45.50
2018-06-16T09:21:56.635Z,47.10
2018-06-16T09:23:58.725Z,48.60
2018-06-16T09:26:00.849Z,47.80
2018-06-16T09:28:02.966Z,47.80
2018-06-16T09:30:05.028Z,47.20
2018-06-16T09:32:07.095Z,49.90
2018-06-16T09:34:09.198Z,46.10
2018-06-16T09:36:11.319Z,42.40
2018-06-16T09:38:13.434Z,45.50
2018-06-16T09:40:15.501Z,45.20
2018-06-16T09:42:17.581Z,46.80
2018-06-16T09:44:19.659Z,42.50
2018-06-16T09:46:21.738Z,40.40
2018-06-16T09:48:23.825Z,39.20
2018-06-16T09:50:26.062Z,38.80
2018-06-16T09:52:28.109Z,34.40
2018-06-16T09:54:30.197Z,35.40
2018-06-16T09:56:32.291Z,37.60
2018-06-16T09:58:34.393Z,36.80
2018-06-16T10:00:39.320Z,35.70
2018-06-16T10:02:41.369Z,36.50
2018-06-16T10:04:43.527Z,37.00
2018-06-16T10:06:45.609Z,34.10
2018-06-16T10:08:47.697Z,34.50
2018-06-16T10:10:49.813Z,34.20
2018-06-16T10:12:51.869Z,34.40
2018-06-16T10:14:53.955Z,32.50
2018-06-16T10:16:56.063Z,34.00
2018-06-16T10:18:58.158Z,31.80
2018-06-16T10:21:00.250Z,31.00
2018-06-16T10:23:02.313Z,31.30
2018-06-16T10:25:04.371Z,33.10
2018-06-16T10:27:06.648Z,26.40
2018-06-16T10:29:08.764Z,28.10
2018-06-16T10:31:10.870Z,28.20
2018-06-16T10:33:12.944Z,26.90
2018-06-16T10:35:15.021Z,27.20
2018-06-16T10:39:19.262Z,30.30
2018-06-16T10:41:21.358Z,25.80
2018-06-16T10:43:23.469Z,26.80
2018-06-16T10:45:25.509Z,28.20
2018-06-16T10:47:27.594Z,28.80
2018-06-16T10:49:29.639Z,27.40
2018-06-16T10:51:31.718Z,27.50
2018-06-16T10:53:33.776Z,26.50
2018-06-16T10:57:37.966Z,24.20
2018-06-16T10:59:40.049Z,24.20
2018-06-16T11:01:42.139Z,26.60
2018-06-16T11:03:44.197Z,21.30
2018-06-16T11:05:46.250Z,22.30
2018-06-16T11:07:48.317Z,25.60
2018-06-16T11:09:50.393Z,24.60
2018-06-16T11:11:52.459Z,23.70
2018-06-16T11:13:54.859Z,24.50
2018-06-16T11:15:57.033Z,24.60
2018-06-16T11:17:59.168Z,24.20
2018-06-16T11:20:01.349Z,22.90
2018-06-16T11:22:03.460Z,21.70
2018-06-16T11:24:05.597Z,19.70
2018-06-16T11:26:07.697Z,18.70
2018-06-16T11:28:09.833Z,22.30
2018-06-16T11:30:12.022Z,22.10
2018-06-16T11:32:14.072Z,21.00
2018-06-16T11:34:16.253Z,23.30
2018-06-16T11:36:18.457Z,19.70
2018-06-16T11:38:20.685Z,19.20
2018-06-16T11:40:22.768Z,18.40
2018-06-16T11:42:24.961Z,20.20
2018-06-16T11:44:27.128Z,18.70
2018-06-16T11:46:29.298Z,21.50
2018-06-16T11:48:31.398Z,22.90
2018-06-16T11:50:33.605Z,22.10
2018-06-16T11:52:35.741Z,17.80
2018-06-16T11:54:37.849Z,21.90
2018-06-16T11:56:40.025Z,21.80
2018-06-16T11:58:42.151Z,23.20
2018-06-16T12:00:44.247Z,22.90
2018-06-16T12:02:46.407Z,21.00
2018-06-16T12:04:48.528Z,21.20
2018-06-16T12:06:50.641Z,21.30
2018-06-16T12:08:52.774Z,20.70
2018-06-16T12:10:54.887Z,22.10
2018-06-16T12:12:56.988Z,21.70
2018-06-16T12:14:59.162Z,18.80
2018-06-16T12:17:01.282Z,19.50
2018-06-16T12:19:03.411Z,19.10
2018-06-16T12:21:05.578Z,21.70
2018-06-16T12:23:07.666Z,18.90
2018-06-16T12:25:09.822Z,22.50
2018-06-16T12:27:11.920Z,23.90
2018-06-16T12:29:14.017Z,23.60
2018-06-16T12:31:16.145Z,24.70
2018-06-16T12:33:18.255Z,24.30
2018-06-16T12:35:20.332Z,24.20
2018-06-16T12:37:22.451Z,23.60
2018-06-16T12:39:24.554Z,24.10
2018-06-16T12:41:26.696Z,24.70
2018-06-16T12:43:28.837Z,22.30
2018-06-16T12:45:30.950Z,24.20
2018-06-16T12:47:33.063Z,21.70
2018-06-16T12:49:35.239Z,21.90
2018-06-16T12:51:37.345Z,20.10
2018-06-16T12:53:39.444Z,21.90
2018-06-16T12:55:41.506Z,19.20
2018-06-16T12:57:43.601Z,20.40
2018-06-16T12:59:45.671Z,16.40
2018-06-16T13:01:47.782Z,15.90
2018-06-16T13:03:50.285Z,15.00
2018-06-16T13:05:52.356Z,13.90
2018-06-16T13:07:54.458Z,16.00
2018-06-16T13:09:56.565Z,14.40
2018-06-16T13:11:58.622Z,15.90
2018-06-16T13:14:00.782Z,14.70
2018-06-16T13:16:02.868Z,16.40
2018-06-16T13:18:05.081Z,16.30
2018-06-16T13:20:07.155Z,17.60
2018-06-16T13:22:09.216Z,18.80
2018-06-16T13:24:11.271Z,19.70
2018-06-16T13:26:13.360Z,18.20
2018-06-16T13:28:15.467Z,22.10
2018-06-16T13:30:17.525Z,21.20
2018-06-16T13:32:19.761Z,21.70
2018-06-16T13:34:21.810Z,20.40
2018-06-16T13:36:23.926Z,23.70
2018-06-16T13:38:25.998Z,23.50
2018-06-16T13:40:28.065Z,21.90
2018-06-16T13:42:30.194Z,20.00
2018-06-16T13:44:32.265Z,22.70
2018-06-16T13:46:34.384Z,21.30
2018-06-16T13:48:36.451Z,20.90
2018-06-16T13:50:38.597Z,20.10
2018-06-16T13:52:40.669Z,21.10
2018-06-16T13:54:42.718Z,20.90
2018-06-16T13:56:44.896Z,18.70
2018-06-16T13:58:46.920Z,19.00
2018-06-16T14:00:49.012Z,19.30
2018-06-16T14:02:51.094Z,17.90
2018-06-16T14:04:53.157Z,17.80
2018-06-16T14:06:55.222Z,16.10
2018-06-16T14:08:57.282Z,16.20
2018-06-16T14:10:59.341Z,16.30
2018-06-16T14:13:01.403Z,17.60
2018-06-16T14:15:03.505Z,16.80
2018-06-16T14:17:05.605Z,16.60
2018-06-16T14:19:07.669Z,15.70
2018-06-16T14:21:09.765Z,14.80
2018-06-16T14:23:11.925Z,14.30
2018-06-16T14:25:13.981Z,16.00
2018-06-16T14:27:16.065Z,15.40
2018-06-16T14:29:18.126Z,17.90
2018-06-16T14:31:20.193Z,18.70
2018-06-16T14:33:22.312Z,17.90
2018-06-16T14:35:24.398Z,18.60
2018-06-16T14:37:26.474Z,19.10
2018-06-16T14:39:28.565Z,19.40
2018-06-16T14:41:30.687Z,18.80
2018-06-16T14:43:32.763Z,18.60
2018-06-16T14:45:34.814Z,19.90
2018-06-16T14:47:36.889Z,21.00
2018-06-16T14:49:38.965Z,20.00
2018-06-16T14:51:41.116Z,19.60
2018-06-16T14:53:43.194Z,20.00
2018-06-16T14:55:45.299Z,17.50
2018-06-16T14:57:47.375Z,18.60
2018-06-16T14:59:49.453Z,19.20
2018-06-16T15:01:51.526Z,20.50
2018-06-16T15:03:53.629Z,18.80
2018-06-16T15:05:55.720Z,17.90
2018-06-16T15:07:57.821Z,17.00
2018-06-16T15:09:59.885Z,17.40
2018-06-16T15:12:01.937Z,17.10
2018-06-16T15:14:04.019Z,17.70
2018-06-16T15:16:06.158Z,17.20
2018-06-16T15:18:08.708Z,16.90
2018-06-16T15:20:10.777Z,16.70
2018-06-16T15:22:12.851Z,17.40
2018-06-16T15:24:14.916Z,16.10
2018-06-16T15:26:16.994Z,16.10
2018-06-16T15:28:19.030Z,17.00
2018-06-16T15:30:21.106Z,14.90
2018-06-16T15:32:23.213Z,17.20
2018-06-16T15:34:25.305Z,15.60
2018-06-16T15:36:27.388Z,16.20
2018-06-16T15:38:29.484Z,15.70
2018-06-16T15:40:31.575Z,16.20
2018-06-16T15:42:33.709Z,16.20
2018-06-16T15:44:35.757Z,15.30
2018-06-16T15:46:37.874Z,16.90
2018-06-16T15:48:40.580Z,16.80
2018-06-16T15:50:42.665Z,15.90
2018-06-16T15:52:44.836Z,16.40
2018-06-16T15:54:46.868Z,15.90
2018-06-16T15:56:48.902Z,15.60
2018-06-16T15:58:51.269Z,16.30
2018-06-16T16:00:53.297Z,16.40
2018-06-16T16:04:57.472Z,14.60
2018-06-16T16:06:59.502Z,13.50
2018-06-16T16:09:01.529Z,13.10
2018-06-16T16:11:03.553Z,14.90
2018-06-16T16:13:05.599Z,15.10
2018-06-16T16:15:07.638Z,14.60
2018-06-16T16:17:09.693Z,14.50
2018-06-16T16:19:11.707Z,15.00
2018-06-16T16:21:13.738Z,17.00
2018-06-16T16:23:15.774Z,15.30
2018-06-16T16:25:17.838Z,15.90
2018-06-16T16:27:20.693Z,15.80
2018-06-16T16:29:22.763Z,15.80
2018-06-16T16:31:24.780Z,15.20
2018-06-16T16:33:27.413Z,15.80
2018-06-16T16:35:29.446Z,15.50
2018-06-16T16:37:31.458Z,15.80
2018-06-16T16:39:33.504Z,15.70
2018-06-16T16:41:35.789Z,15.80
2018-06-16T16:43:37.814Z,15.30
2018-06-16T16:47:41.939Z,14.10
2018-06-16T16:49:44.013Z,15.30
2018-06-16T16:51:46.027Z,15.90
2018-06-16T16:53:48.042Z,16.20
2018-06-16T16:55:50.045Z,14.80
2018-06-16T16:57:52.070Z,15.20
2018-06-16T16:59:54.089Z,15.50
2018-06-16T17:01:56.106Z,15.50
2018-06-16T17:03:58.193Z,14.00
2018-06-16T17:06:00.213Z,13.30
2018-06-16T17:08:02.232Z,16.00
2018-06-16T17:10:04.580Z,15.50
2018-06-16T17:12:06.625Z,14.70
2018-06-16T17:14:08.742Z,15.10
2018-06-16T17:16:10.785Z,15.30
2018-06-16T17:18:12.796Z,14.10
2018-06-16T17:20:14.830Z,15.30
2018-06-16T17:22:16.923Z,17.10
2018-06-16T17:24:18.950Z,16.80
2018-06-16T17:26:20.965Z,16.30
2018-06-16T17:28:22.977Z,17.80
2018-06-16T17:30:25.038Z,16.40
2018-06-16T17:34:29.184Z,16.80
2018-06-16T17:36:31.202Z,15.30
2018-06-16T17:38:33.240Z,15.90
2018-06-16T17:40:35.327Z,18.70
2018-06-16T17:42:37.392Z,20.20
2018-06-16T17:44:39.434Z,20.30
2018-06-16T17:46:41.460Z,18.30
2018-06-16T17:48:43.486Z,19.30
2018-06-16T17:50:45.533Z,20.00
2018-06-16T17:52:47.600Z,21.80
2018-06-16T17:54:49.769Z,22.80
2018-06-16T17:56:51.956Z,22.00
2018-06-16T17:58:54.139Z,23.30
2018-06-16T18:00:56.202Z,23.20
2018-06-16T18:02:58.288Z,23.20
2018-06-16T18:05:00.369Z,22.00
2018-06-16T18:07:02.414Z,22.70
2018-06-16T18:09:07.345Z,21.10
2018-06-16T18:11:09.412Z,23.00
2018-06-16T18:13:11.485Z,23.10
2018-06-16T18:15:13.565Z,24.80
2018-06-16T18:17:15.624Z,25.80
2018-06-16T18:21:19.862Z,27.90
2018-06-16T18:23:21.970Z,26.00
2018-06-16T18:25:24.062Z,26.50
2018-06-16T18:27:26.137Z,29.30
2018-06-16T18:29:28.186Z,33.00
2018-06-16T18:31:30.240Z,32.90
2018-06-16T18:33:32.294Z,32.70
2018-06-16T18:35:34.471Z,28.10
2018-06-16T18:37:36.963Z,30.00
2018-06-16T18:39:39.071Z,31.10
2018-06-16T18:41:41.303Z,29.30
2018-06-16T18:43:43.530Z,29.10
2018-06-16T18:45:45.697Z,32.50
2018-06-16T18:47:47.953Z,32.30
2018-06-16T18:49:50.233Z,34.30
2018-06-16T18:51:52.416Z,37.90
2018-06-16T18:53:54.625Z,40.10
2018-06-16T18:55:56.943Z,37.40
2018-06-16T18:58:01.121Z,42.60
2018-06-16T19:00:03.670Z,42.70
2018-06-16T19:02:05.878Z,40.70
2018-06-16T19:04:08.067Z,39.90
2018-06-16T19:06:10.303Z,43.90
2018-06-16T19:08:12.464Z,46.00
2018-06-16T19:10:14.645Z,46.30
2018-06-16T19:12:16.822Z,47.60
2018-06-16T19:14:19.044Z,49.00
2018-06-16T19:16:21.278Z,50.80
2018-06-16T19:18:23.414Z,52.10
2018-06-16T19:20:25.543Z,54.80
2018-06-16T19:22:27.654Z,56.00
2018-06-16T19:24:29.853Z,48.70
2018-06-16T19:26:31.990Z,49.20
2018-06-16T19:28:34.197Z,50.00
2018-06-16T19:30:36.390Z,50.80
2018-06-16T19:34:40.690Z,49.70
2018-06-16T19:36:42.798Z,52.10
2018-06-16T19:38:45.039Z,53.20
2018-06-16T19:40:47.189Z,54.30
2018-06-16T19:42:49.399Z,49.40
2018-06-16T19:44:51.496Z,50.50
2018-06-16T19:46:53.655Z,49.20
2018-06-16T19:48:55.823Z,49.20
2018-06-16T19:50:57.950Z,46.40
2018-06-16T19:53:00.165Z,47.90
2018-06-16T19:55:02.291Z,51.20
2018-06-16T19:57:04.467Z,50.50
2018-06-16T19:59:06.625Z,51.90
2018-06-16T20:01:08.725Z,55.50
2018-06-16T20:03:10.858Z,54.20
2018-06-16T20:05:12.926Z,55.10
2018-06-16T20:07:15.067Z,56.90
2018-06-16T20:09:17.230Z,56.20
2018-06-16T20:11:19.968Z,56.40
2018-06-16T20:13:22.190Z,57.40
2018-06-16T20:15:24.374Z,56.30
2018-06-16T20:17:26.573Z,56.20
2018-06-16T20:19:28.842Z,58.40
2018-06-16T20:21:30.922Z,59.60
2018-06-16T20:23:33.040Z,59.40
2018-06-16T20:25:35.154Z,59.50
2018-06-16T20:27:37.279Z,59.30
2018-06-16T20:29:39.385Z,61.80
2018-06-16T20:31:41.453Z,63.30
2018-06-16T20:33:43.702Z,61.50
2018-06-16T20:35:45.795Z,60.50
2018-06-16T20:37:47.993Z,61.10
2018-06-16T20:39:50.008Z,61.90
2018-06-16T20:41:52.147Z,62.10
2018-06-16T20:43:54.334Z,63.50
2018-06-16T20:45:56.538Z,63.40
2018-06-16T20:47:58.718Z,66.40
2018-06-16T20:50:00.957Z,65.70
2018-06-16T20:52:03.095Z,68.50
2018-06-16T20:54:05.285Z,67.50
2018-06-16T20:56:07.431Z,66.40
2018-06-16T20:58:09.578Z,67.10
2018-06-16T21:00:11.737Z,66.90
2018-06-16T21:02:13.902Z,68.70
2018-06-16T21:04:16.026Z,71.30
2018-06-16T21:06:18.157Z,69.00
2018-06-16T21:08:20.320Z,67.40
2018-06-16T21:10:22.462Z,67.30
2018-06-16T21:12:24.598Z,67.40
2018-06-16T21:14:26.726Z,67.40
2018-06-16T21:16:28.934Z,67.90
2018-06-16T21:18:31.074Z,68.30
2018-06-16T21:20:33.183Z,69.50
2018-06-16T21:22:35.274Z,71.00
2018-06-16T21:24:37.360Z,70.50
2018-06-16T21:26:39.493Z,70.20
2018-06-16T21:28:41.664Z,71.80
2018-06-16T21:30:43.792Z,76.80
2018-06-16T21:32:45.934Z,77.50
2018-06-16T21:36:50.386Z,79.00
2018-06-16T21:38:52.785Z,79.40
2018-06-16T21:40:54.986Z,77.80
2018-06-16T21:42:57.176Z,78.50
2018-06-16T21:44:59.271Z,78.30
2018-06-16T21:47:01.439Z,80.10
2018-06-16T21:49:03.607Z,80.20
2018-06-16T21:51:05.861Z,82.00
2018-06-16T21:53:08.063Z,84.20
2018-06-16T21:55:10.323Z,85.30
2018-06-16T21:57:12.724Z,88.30
2018-06-16T21:59:14.904Z,92.00
2018-06-16T22:01:17.143Z,92.70
2018-06-16T22:05:21.982Z,94.30
2018-06-16T22:07:24.201Z,94.60
2018-06-16T22:09:26.570Z,95.10
2018-06-16T22:11:28.961Z,95.90
2018-06-16T22:13:31.735Z,96.50
2018-06-16T22:15:33.862Z,96.80
2018-06-16T22:17:36.279Z,97.60
2018-06-16T22:19:38.619Z,97.10
2018-06-16T22:21:41.122Z,97.30
2018-06-16T22:23:46.426Z,97.90
2018-06-16T22:25:48.555Z,97.40
2018-06-16T22:27:51.774Z,96.90
2018-06-16T22:29:53.938Z,97.40
2018-06-16T22:31:56.208Z,97.20
2018-06-16T22:33:58.558Z,97.10
2018-06-16T22:36:10.969Z,97.20
2018-06-16T22:38:13.404Z,97.60
2018-06-16T22:40:16.745Z,97.80
2018-06-16T22:42:22.668Z,97.80
2018-06-16T22:44:25.389Z,97.80
2018-06-16T22:46:27.631Z,98.40
2018-06-16T22:48:29.777Z,98.80
2018-06-16T22:50:31.942Z,98.70
2018-06-16T22:52:34.146Z,99.10
2018-06-16T22:54:36.313Z,98.90
2018-06-16T22:56:38.534Z,99.10
2018-06-16T22:58:40.666Z,99.10
2018-06-16T23:00:42.772Z,99.50
2018-06-16T23:02:44.995Z,99.90
2018-06-16T23:04:47.152Z,99.90
2018-06-16T23:06:49.371Z,99.90
2018-06-16T23:08:51.535Z,99.90
2018-06-16T23:10:53.663Z,99.90
2018-06-16T23:12:55.866Z,99.90
2018-06-16T23:14:57.970Z,99.90
2018-06-16T23:17:00.341Z,99.90
2018-06-16T23:19:02.501Z,99.90
2018-06-16T23:21:04.618Z,99.90
2018-06-16T23:23:06.733Z,99.90
2018-06-16T23:25:08.793Z,99.90
2018-06-16T23:27:10.829Z,99.90
2018-06-16T23:29:12.877Z,99.90
2018-06-16T23:31:14.932Z,99.90
2018-06-16T23:33:16.969Z,99.90
2018-06-16T23:35:19.001Z,99.90
2018-06-16T23:37:21.054Z,99.90
2018-06-16T23:39:23.092Z,99.90
2018-06-16T23:41:25.141Z,99.90
2018-06-16T23:43:27.205Z,99.90
2018-06-16T23:45:29.271Z,99.90
2018-06-16T23:47:31.310Z,99.90
2018-06-16T23:49:33.340Z,99.90
2018-06-16T23:51:35.373Z,99.90
2018-06-16T23:53:37.414Z,99.90
2018-06-16T23:55:39.458Z,99.90
2018-06-16T23:57:41.481Z,99.90
2018-06-16T23:59:43.564Z,99.90
